METAR Data
IDs: Format: Raw Decoded Include TAF

Data at: 0228 UTC 29 Nov 2020

PHNL 290153Z 04014G19KT 10SM FEW028 FEW042 FEW060 27/16 A2998 RMK AO2 SLP151 T02720156
PHNL 290053Z 03013KT 10SM FEW028 FEW047 SCT060 28/14 A2998 RMK AO2 SLP150 T02780144

PHNL 282339Z 2900/3006 03012G18KT P6SM FEW045
  FM290500 04008KT P6SM FEW025 BKN045
  FM292000 05014G23KT P6SM SCT025 BKN045
  FM300500 04008KT P6SM FEW025 BKN045


PHOG 290154Z 04015KT 10SM FEW065 26/19 A2998 RMK AO2 RAE0057 SLP156 P0000 T02610189
PHOG 290054Z 03013KT 7SM -RA FEW020 SCT040 SCT060 23/20 A2998 RMK AO2 RAE09B36 SLP156 P0000 T02330200

PHOG 282339Z 2900/2924 03020KT P6SM VCSH FEW020 SCT050
  FM290500 04008KT P6SM VCSH FEW020 BKN050
  FM292000 04015G25KT P6SM FEW020 SCT050 AMD LTD TO VIS AND WIND 2909/2916


PHKO 290202Z 12013KT 10SM FEW033 BKN055 28/19 A2993 RMK AO2 WSHFT 0142 T02780194
PHKO 290153Z 15011KT 10SM SCT050 27/19 A2993 RMK AO2 SLP135 T02720194
PHKO 290053Z 22008KT 10SM CLR 29/18 A2992 RMK AO2 SLP130 T02890183

PHKO 282339Z 2900/2924 27009KT P6SM FEW025 SCT060
  FM290400 03007KT P6SM SCT050
  FM292000 25011KT P6SM FEW025 SCT050


PHTO 290153Z 02008KT 10SM CLR 27/18 A2996 RMK AO2 SLP144 T02720183
PHTO 290053Z 01008KT 10SM FEW050 27/18 A2995 RMK AO2 SLP142 T02720183

PHTO 282339Z 2900/2924 03010KT P6SM SCT040
  FM290500 28008KT P6SM VCSH SCT020 BKN045
  FM292000 01010KT P6SM VCSH SCT020 BKN045


PHLI 290153Z 05013KT 10SM FEW028 BKN048 26/21 A3002 RMK AO2 SLP161 T02610206
PHLI 290053Z 04013G22KT 10SM FEW030 SCT037 BKN060 26/19 A3002 RMK AO2 SLP162 T02560194

PHLI 282339Z 2900/2924 03020KT P6SM VCSH FEW030 SCT045
  FM291000 03012KT P6SM VCSH FEW025 BKN045
  FM292000 04016KT P6SM VCSH FEW025 SCT045